createdAt,value
2018-07-04T00:00:40.446Z,50.80
2018-07-04T00:03:13.091Z,51.20
2018-07-04T00:05:45.668Z,50.40
2018-07-04T00:08:18.362Z,50.30
2018-07-04T00:10:50.883Z,50.40
2018-07-04T00:13:23.647Z,51.10
2018-07-04T00:15:56.211Z,50.00
2018-07-04T00:18:28.904Z,50.20
2018-07-04T00:21:01.600Z,49.40
2018-07-04T00:23:34.344Z,50.80
2018-07-04T00:28:33.732Z,51.40
2018-07-04T00:31:06.484Z,50.70
2018-07-04T00:33:39.111Z,49.70
2018-07-04T00:36:11.712Z,50.70
2018-07-04T00:38:44.256Z,50.70
2018-07-04T00:41:16.867Z,50.20
2018-07-04T00:43:49.386Z,50.90
2018-07-04T00:46:22.051Z,51.80
2018-07-04T00:48:54.940Z,52.60
2018-07-04T00:51:27.424Z,52.40
2018-07-04T00:53:59.940Z,51.80
2018-07-04T00:56:32.520Z,50.90
2018-07-04T00:59:05.224Z,52.10
2018-07-04T01:01:38.046Z,52.10
2018-07-04T01:04:10.655Z,51.20
2018-07-04T01:06:43.512Z,51.80
2018-07-04T01:09:17.572Z,52.10
2018-07-04T01:11:51.064Z,52.50
2018-07-04T01:14:24.332Z,52.20
2018-07-04T01:16:56.964Z,52.60
2018-07-04T01:19:29.520Z,52.80
2018-07-04T01:22:02.023Z,52.40
2018-07-04T01:24:34.548Z,52.20
2018-07-04T01:27:07.600Z,52.00
2018-07-04T01:29:40.323Z,52.80
2018-07-04T01:32:13.175Z,52.70
2018-07-04T01:34:45.855Z,53.00
2018-07-04T01:37:18.643Z,52.80
2018-07-04T01:39:51.205Z,52.70
2018-07-04T01:42:23.858Z,53.70
2018-07-04T01:44:56.592Z,52.70
2018-07-04T01:47:29.362Z,53.10
2018-07-04T01:50:01.843Z,53.00
2018-07-04T01:52:34.848Z,52.80
2018-07-04T01:55:07.564Z,53.20
2018-07-04T01:57:40.125Z,52.90
2018-07-04T02:00:12.724Z,52.60
2018-07-04T02:02:45.307Z,52.90
2018-07-04T02:07:44.668Z,53.50
2018-07-04T02:10:17.407Z,53.50
2018-07-04T02:12:50.327Z,53.70
2018-07-04T02:15:22.956Z,53.40
2018-07-04T02:17:56.218Z,54.10
2018-07-04T02:20:29.079Z,54.10
2018-07-04T02:23:01.852Z,53.90
2018-07-04T02:25:34.436Z,54.30
2018-07-04T02:28:07.055Z,54.20
2018-07-04T02:30:39.740Z,54.30
2018-07-04T02:33:12.479Z,54.40
2018-07-04T02:35:45.122Z,54.70
2018-07-04T02:38:17.839Z,54.70
2018-07-04T02:40:50.480Z,54.30
2018-07-04T02:43:23.043Z,54.30
2018-07-04T02:45:55.620Z,54.50
2018-07-04T02:48:28.329Z,54.60
2018-07-04T02:51:01.100Z,55.00
2018-07-04T02:53:33.891Z,54.90
2018-07-04T02:56:06.507Z,55.60
2018-07-04T02:58:39.252Z,56.10
2018-07-04T03:01:11.869Z,57.40
2018-07-04T03:03:44.409Z,58.20
2018-07-04T03:06:17.119Z,57.20
2018-07-04T03:08:49.947Z,57.70
2018-07-04T03:11:22.520Z,57.70
2018-07-04T03:13:55.212Z,58.00
2018-07-04T03:16:28.009Z,57.40
2018-07-04T03:19:00.572Z,57.60
2018-07-04T03:21:33.287Z,57.60
2018-07-04T03:24:05.934Z,57.60
2018-07-04T03:26:38.504Z,57.90
2018-07-04T03:29:11.220Z,57.80
2018-07-04T03:31:43.969Z,58.30
2018-07-04T03:34:16.552Z,58.70
2018-07-04T03:36:49.095Z,58.30
2018-07-04T03:39:21.714Z,58.30
2018-07-04T03:41:54.179Z,59.70
2018-07-04T03:44:26.692Z,59.50
2018-07-04T03:46:59.342Z,60.00
2018-07-04T03:49:31.980Z,60.30
2018-07-04T03:52:04.712Z,60.00
2018-07-04T03:54:37.516Z,60.60
2018-07-04T03:57:10.208Z,60.50
2018-07-04T03:59:43.027Z,60.70
2018-07-04T04:02:15.543Z,61.10
2018-07-04T04:04:48.332Z,61.90
2018-07-04T04:07:21.041Z,61.40
2018-07-04T04:09:53.828Z,61.80
2018-07-04T04:12:26.448Z,62.30
2018-07-04T04:14:59.184Z,62.40
2018-07-04T04:17:31.804Z,62.40
2018-07-04T04:20:04.539Z,62.00
2018-07-04T04:22:37.299Z,62.10
2018-07-04T04:27:36.851Z,61.60
2018-07-04T04:30:09.687Z,61.80
2018-07-04T04:32:42.715Z,61.90
2018-07-04T04:35:15.303Z,62.30
2018-07-04T04:37:47.945Z,61.70
2018-07-04T04:40:20.659Z,61.90
2018-07-04T04:42:53.332Z,61.90
2018-07-04T04:45:25.897Z,61.60
2018-07-04T04:47:58.468Z,61.80
2018-07-04T04:50:31.255Z,62.00
2018-07-04T04:53:04.028Z,62.30
2018-07-04T04:58:03.515Z,62.40
2018-07-04T05:00:36.163Z,62.20
2018-07-04T05:03:08.804Z,62.20
2018-07-04T05:05:41.615Z,61.60
2018-07-04T05:08:14.356Z,61.50
2018-07-04T05:10:46.982Z,61.00
2018-07-04T05:13:19.723Z,60.50
2018-07-04T05:15:52.661Z,60.00
2018-07-04T05:18:25.162Z,60.00
2018-07-04T05:20:57.766Z,59.30
2018-07-04T05:23:30.408Z,58.90
2018-07-04T05:26:03.058Z,58.90
2018-07-04T05:28:35.732Z,59.10
2018-07-04T05:31:08.319Z,58.20
2018-07-04T05:33:40.859Z,58.30
2018-07-04T05:36:13.536Z,58.10
2018-07-04T05:38:46.223Z,58.70
2018-07-04T05:41:19.248Z,57.80
2018-07-04T05:43:51.836Z,57.90
2018-07-04T05:46:25.704Z,56.00
2018-07-04T05:48:58.171Z,55.10
2018-07-04T05:51:31.148Z,55.40
2018-07-04T05:54:03.835Z,54.60
2018-07-04T05:59:03.475Z,57.80
2018-07-04T06:01:36.136Z,58.30
2018-07-04T06:04:08.807Z,58.00
2018-07-04T06:06:41.496Z,57.80
2018-07-04T06:09:14.243Z,57.00
2018-07-04T06:11:46.759Z,58.20
2018-07-04T06:14:19.252Z,57.90
2018-07-04T06:16:51.977Z,57.60
2018-07-04T06:19:24.591Z,57.20
2018-07-04T06:21:57.179Z,57.10
2018-07-04T06:24:29.847Z,56.90
2018-07-04T06:27:02.435Z,56.70
2018-07-04T06:29:34.931Z,56.50
2018-07-04T06:32:07.735Z,56.40
2018-07-04T06:34:40.293Z,55.30
2018-07-04T06:37:13.223Z,53.80
2018-07-04T06:39:39.629Z,52.70
2018-07-04T06:42:06.115Z,50.80
2018-07-04T06:44:32.515Z,50.70
2018-07-04T06:46:58.935Z,50.40
2018-07-04T06:49:25.347Z,49.70
2018-07-04T06:51:51.775Z,48.40
2018-07-04T06:54:18.257Z,47.20
2018-07-04T06:56:44.645Z,46.10
2018-07-04T06:59:11.060Z,44.80
2018-07-04T07:01:37.515Z,42.60
2018-07-04T07:04:10.519Z,42.20
2018-07-04T07:06:43.279Z,41.00
2018-07-04T07:09:15.875Z,41.30
2018-07-04T07:11:48.521Z,41.70
2018-07-04T07:14:21.178Z,40.50
2018-07-04T07:16:53.795Z,41.10
2018-07-04T07:19:26.376Z,40.50
2018-07-04T07:21:58.918Z,40.40
2018-07-04T07:24:31.492Z,39.60
2018-07-04T07:27:04.486Z,39.00
2018-07-04T07:29:37.095Z,38.50
2018-07-04T07:32:09.680Z,38.40
2018-07-04T07:34:42.236Z,38.40
2018-07-04T07:39:41.723Z,38.60
2018-07-04T07:42:14.755Z,37.90
2018-07-04T07:44:47.312Z,37.40
2018-07-04T07:47:20.024Z,37.50
2018-07-04T07:49:52.838Z,37.80
2018-07-04T07:52:25.479Z,38.30
2018-07-04T07:54:58.044Z,37.20
2018-07-04T07:59:57.523Z,35.00
2018-07-04T08:02:30.063Z,35.40
2018-07-04T08:05:02.608Z,34.70
2018-07-04T08:07:35.203Z,34.50
2018-07-04T08:10:07.668Z,34.20
2018-07-04T08:12:40.728Z,32.50
2018-07-04T08:15:13.452Z,31.30
2018-07-04T08:17:46.176Z,30.60
2018-07-04T08:20:18.972Z,31.30
2018-07-04T08:22:51.607Z,30.50
2018-07-04T08:27:51.043Z,30.00
2018-07-04T08:30:23.814Z,29.20
2018-07-04T08:32:56.788Z,29.30
2018-07-04T08:35:29.427Z,28.80
2018-07-04T08:38:02.071Z,27.50
2018-07-04T08:40:34.783Z,28.50
2018-07-04T08:43:07.479Z,27.90
2018-07-04T08:45:40.168Z,27.90
2018-07-04T08:48:12.871Z,27.10
2018-07-04T08:50:45.434Z,27.50
2018-07-04T08:53:18.036Z,27.70
2018-07-04T08:55:50.763Z,28.30
2018-07-04T08:58:23.670Z,27.90
2018-07-04T09:00:56.231Z,27.70
2018-07-04T09:03:29.531Z,28.40
2018-07-04T09:06:02.216Z,28.10
2018-07-04T09:08:35.027Z,27.70
2018-07-04T09:11:07.607Z,27.50
2018-07-04T09:13:41.016Z,26.90
2018-07-04T09:16:13.719Z,27.30
2018-07-04T09:18:46.399Z,26.70
2018-07-04T09:21:19.050Z,26.60
2018-07-04T09:23:51.966Z,26.10
2018-07-04T09:26:24.567Z,26.00
2018-07-04T09:28:57.287Z,26.20
2018-07-04T09:33:56.919Z,26.40
2018-07-04T09:36:29.571Z,26.20
2018-07-04T09:39:02.352Z,25.80
2018-07-04T09:41:34.943Z,25.80
2018-07-04T09:44:07.620Z,25.30
2018-07-04T09:46:40.200Z,25.90
2018-07-04T09:49:12.780Z,25.30
2018-07-04T09:51:45.459Z,25.40
2018-07-04T09:54:17.974Z,25.50
2018-07-04T09:56:50.501Z,25.60
2018-07-04T09:59:23.080Z,25.80
2018-07-04T10:01:55.880Z,26.00
2018-07-04T10:04:28.641Z,25.70
2018-07-04T10:07:01.811Z,25.20
2018-07-04T10:09:34.529Z,25.80
2018-07-04T10:12:07.672Z,25.10
2018-07-04T10:14:40.507Z,25.00
2018-07-04T10:17:13.187Z,24.60
2018-07-04T10:22:12.799Z,24.30
2018-07-04T10:24:45.391Z,24.30
2018-07-04T10:27:18.207Z,23.80
2018-07-04T10:29:50.951Z,23.80
2018-07-04T10:34:50.465Z,23.80
2018-07-04T10:37:23.165Z,23.90
2018-07-04T10:39:56.112Z,23.80
2018-07-04T10:42:28.799Z,24.40
2018-07-04T10:45:01.388Z,24.30
2018-07-04T10:47:33.860Z,24.50
2018-07-04T10:50:06.636Z,24.30
2018-07-04T10:52:39.228Z,24.60
2018-07-04T10:55:11.891Z,24.80
2018-07-04T10:57:44.380Z,24.60
2018-07-04T11:00:17.211Z,24.60
2018-07-04T11:02:49.892Z,24.70
2018-07-04T11:05:22.935Z,24.30
2018-07-04T11:07:55.635Z,24.50
2018-07-04T11:12:55.068Z,24.00
2018-07-04T11:15:27.685Z,24.40
2018-07-04T11:18:00.280Z,24.00
2018-07-04T11:20:33.259Z,23.70
2018-07-04T11:23:05.848Z,24.20
2018-07-04T11:25:38.511Z,23.20
2018-07-04T11:28:11.223Z,23.70
2018-07-04T11:30:44.018Z,24.30
2018-07-04T11:35:43.551Z,24.80
2018-07-04T11:38:16.327Z,25.60
2018-07-04T11:40:49.047Z,24.80
2018-07-04T11:43:21.648Z,24.80
2018-07-04T11:45:53.151Z,24.30
2018-07-04T11:48:19.572Z,24.10
2018-07-04T11:50:46.004Z,23.20
2018-07-04T11:53:12.475Z,23.50
2018-07-04T11:55:38.879Z,22.90
2018-07-04T11:58:05.277Z,22.40
2018-07-04T12:00:31.704Z,22.30
2018-07-04T12:02:58.107Z,22.80
2018-07-04T12:05:30.905Z,22.40
2018-07-04T12:07:57.287Z,22.60
2018-07-04T12:12:50.580Z,23.50
2018-07-04T12:15:17.012Z,23.10
2018-07-04T12:17:43.664Z,23.30
2018-07-04T12:20:10.084Z,23.70
2018-07-04T12:22:36.486Z,22.20
2018-07-04T12:25:02.943Z,22.70
2018-07-04T12:27:29.368Z,23.90
2018-07-04T12:29:56.035Z,23.50
2018-07-04T12:32:22.732Z,23.10
2018-07-04T12:34:49.141Z,22.90
2018-07-04T12:37:15.576Z,23.30
2018-07-04T12:39:41.980Z,22.80
2018-07-04T12:42:08.407Z,22.60
2018-07-04T12:44:34.813Z,22.80
2018-07-04T12:47:01.280Z,22.40
2018-07-04T12:49:28.430Z,22.60
2018-07-04T12:51:54.988Z,22.80
2018-07-04T12:54:27.132Z,22.60
2018-07-04T12:56:59.871Z,22.70
2018-07-04T13:02:00.215Z,22.80
2018-07-04T13:04:33.007Z,22.40
2018-07-04T13:07:05.663Z,21.60
2018-07-04T13:09:38.106Z,20.90
2018-07-04T13:12:10.874Z,21.10
2018-07-04T13:14:43.967Z,20.80
2018-07-04T13:17:16.623Z,21.10
2018-07-04T13:19:49.445Z,20.70
2018-07-04T13:22:22.075Z,21.10
2018-07-04T13:24:54.759Z,20.70
2018-07-04T13:27:27.527Z,21.10
2018-07-04T13:30:00.365Z,21.40
2018-07-04T13:32:33.080Z,21.60
2018-07-04T13:35:05.675Z,21.80
2018-07-04T13:40:05.163Z,21.30
2018-07-04T13:42:37.867Z,21.50
2018-07-04T13:45:10.910Z,21.60
2018-07-04T13:47:43.659Z,21.30
2018-07-04T13:50:16.303Z,20.80
2018-07-04T13:52:49.083Z,20.70
2018-07-04T13:55:22.032Z,21.10
2018-07-04T13:57:54.663Z,20.60
2018-07-04T14:00:27.235Z,21.80
2018-07-04T14:02:59.833Z,22.30
2018-07-04T14:07:59.458Z,23.30
2018-07-04T14:10:32.318Z,23.80
2018-07-04T14:13:04.919Z,24.00
2018-07-04T14:15:37.467Z,23.80
2018-07-04T14:18:10.208Z,23.30
2018-07-04T14:20:42.736Z,23.80
2018-07-04T14:23:15.295Z,23.00
2018-07-04T14:25:47.890Z,22.90
2018-07-04T14:28:20.512Z,22.80
2018-07-04T14:30:53.080Z,23.10
2018-07-04T14:33:25.646Z,23.20
2018-07-04T14:35:58.324Z,22.90
2018-07-04T14:38:31.027Z,23.30
2018-07-04T14:41:03.649Z,23.60
2018-07-04T14:43:36.279Z,23.90
2018-07-04T14:46:08.815Z,24.00
2018-07-04T14:48:41.528Z,23.90
2018-07-04T14:51:14.200Z,23.60
2018-07-04T14:53:46.963Z,23.60
2018-07-04T14:56:19.563Z,23.60
2018-07-04T14:58:52.229Z,23.40
2018-07-04T15:01:24.827Z,23.90
2018-07-04T15:03:57.491Z,24.40
2018-07-04T15:06:30.155Z,25.00
2018-07-04T15:09:02.924Z,25.30
2018-07-04T15:11:35.439Z,25.60
2018-07-04T15:14:08.163Z,26.00
2018-07-04T15:16:40.655Z,26.10
2018-07-04T15:19:13.272Z,27.20
2018-07-04T15:21:45.892Z,27.70
2018-07-04T15:24:18.661Z,28.30
2018-07-04T15:26:51.644Z,28.20
2018-07-04T15:29:24.651Z,28.10
2018-07-04T15:31:57.194Z,29.60
2018-07-04T15:34:29.805Z,29.80
2018-07-04T15:37:02.679Z,29.50
2018-07-04T15:39:35.244Z,28.90
2018-07-04T15:42:08.108Z,28.60
2018-07-04T15:44:40.732Z,28.80
2018-07-04T15:47:13.476Z,28.90
2018-07-04T15:52:17.464Z,30.30
2018-07-04T15:54:50.428Z,31.20
2018-07-04T15:57:23.428Z,32.30
2018-07-04T15:59:56.347Z,32.50
2018-07-04T16:02:29.044Z,32.80
2018-07-04T16:07:28.524Z,33.90
2018-07-04T16:10:01.171Z,34.50
2018-07-04T16:12:33.765Z,35.00
2018-07-04T16:15:06.376Z,35.50
2018-07-04T16:17:38.872Z,35.40
2018-07-04T16:20:11.467Z,34.90
2018-07-04T16:22:44.032Z,35.20
2018-07-04T16:25:16.901Z,35.40
2018-07-04T16:27:49.623Z,35.70
2018-07-04T16:30:22.378Z,35.80
2018-07-04T16:32:55.527Z,36.30
2018-07-04T16:35:28.238Z,36.40
2018-07-04T16:38:01.031Z,36.80
2018-07-04T16:40:33.635Z,37.40
2018-07-04T16:43:06.274Z,37.60
2018-07-04T16:45:38.894Z,37.80
2018-07-04T16:48:11.555Z,38.00
2018-07-04T16:50:44.281Z,39.10
2018-07-04T16:53:17.007Z,38.50
2018-07-04T16:55:49.687Z,38.70
2018-07-04T17:00:49.072Z,38.60
2018-07-04T17:03:21.747Z,39.00
2018-07-04T17:05:54.339Z,39.20
2018-07-04T17:08:27.012Z,38.60
2018-07-04T17:10:59.699Z,39.50
2018-07-04T17:13:32.669Z,40.00
2018-07-04T17:16:05.172Z,39.90
2018-07-04T17:18:37.707Z,40.30
2018-07-04T17:21:10.367Z,40.80
2018-07-04T17:23:42.883Z,40.90
2018-07-04T17:26:15.568Z,41.40
2018-07-04T17:28:48.236Z,41.50
2018-07-04T17:31:20.871Z,41.20
2018-07-04T17:33:53.387Z,41.50
2018-07-04T17:36:25.936Z,41.80
2018-07-04T17:38:58.552Z,42.10
2018-07-04T17:41:31.526Z,42.20
2018-07-04T17:44:04.169Z,42.80
2018-07-04T17:46:36.750Z,42.40
2018-07-04T17:49:09.372Z,42.50
2018-07-04T17:51:42.040Z,42.90
2018-07-04T17:54:15.007Z,43.10
2018-07-04T17:56:47.560Z,43.20
2018-07-04T17:59:20.172Z,43.40
2018-07-04T18:01:52.743Z,43.70
2018-07-04T18:04:25.425Z,44.10
2018-07-04T18:06:58.062Z,44.30
2018-07-04T18:09:30.719Z,44.60
2018-07-04T18:12:03.718Z,44.60
2018-07-04T18:14:36.288Z,45.40
2018-07-04T18:17:09.076Z,44.70
2018-07-04T18:19:41.691Z,44.40
2018-07-04T18:22:14.375Z,44.40
2018-07-04T18:24:47.036Z,44.50
2018-07-04T18:27:21.351Z,45.00
2018-07-04T18:32:20.883Z,45.30
2018-07-04T18:34:53.432Z,45.40
2018-07-04T18:37:26.400Z,45.70
2018-07-04T18:39:59.139Z,45.90
2018-07-04T18:42:32.268Z,45.70
2018-07-04T18:45:04.863Z,45.80
2018-07-04T18:47:37.572Z,46.10
2018-07-04T18:50:10.216Z,46.30
2018-07-04T18:52:42.847Z,46.40
2018-07-04T18:55:15.512Z,46.60
2018-07-04T18:57:47.951Z,46.90
2018-07-04T19:00:20.532Z,47.20
2018-07-04T19:02:53.131Z,47.30
2018-07-04T19:05:25.827Z,47.70
2018-07-04T19:07:58.499Z,48.10
2018-07-04T19:10:31.284Z,47.00
2018-07-04T19:13:04.067Z,47.50
2018-07-04T19:18:03.677Z,48.00
2018-07-04T19:20:36.463Z,48.40
2018-07-04T19:23:09.236Z,48.60
2018-07-04T19:25:41.939Z,49.10
2018-07-04T19:28:14.580Z,49.50
2018-07-04T19:30:47.149Z,49.70
2018-07-04T19:33:20.035Z,50.20
2018-07-04T19:35:52.759Z,50.30
2018-07-04T19:38:25.246Z,51.00
2018-07-04T19:40:58.047Z,50.90
2018-07-04T19:43:30.616Z,51.10
2018-07-04T19:46:03.224Z,51.20
2018-07-04T19:48:35.826Z,52.60
2018-07-04T19:51:08.500Z,52.10
2018-07-04T19:53:41.212Z,52.00
2018-07-04T19:56:13.859Z,52.70
2018-07-04T19:58:46.475Z,53.50
2018-07-04T20:03:45.922Z,53.30
2018-07-04T20:06:18.630Z,53.70
2018-07-04T20:08:51.251Z,53.80
2018-07-04T20:11:23.916Z,54.10
2018-07-04T20:13:56.513Z,54.10
2018-07-04T20:16:29.066Z,54.10
2018-07-04T20:19:01.782Z,54.30
2018-07-04T20:21:34.375Z,54.30
2018-07-04T20:24:07.135Z,54.30
2018-07-04T20:26:39.928Z,54.50
2018-07-04T20:29:13.701Z,54.60
2018-07-04T20:34:13.335Z,54.50
2018-07-04T20:36:45.863Z,54.60
2018-07-04T20:39:18.763Z,54.60
2018-07-04T20:41:52.121Z,54.60
2018-07-04T20:44:25.040Z,54.50
2018-07-04T20:46:57.647Z,54.40
2018-07-04T20:49:30.221Z,54.50
2018-07-04T20:52:02.869Z,55.40
2018-07-04T20:54:35.453Z,55.00
2018-07-04T20:57:08.103Z,55.40
2018-07-04T20:59:40.827Z,55.70
2018-07-04T21:02:13.731Z,55.90
2018-07-04T21:04:46.589Z,56.10
2018-07-04T21:07:19.348Z,56.20
2018-07-04T21:09:51.989Z,56.40
2018-07-04T21:12:24.939Z,56.60
2018-07-04T21:14:57.847Z,56.70
2018-07-04T21:17:30.916Z,56.50
2018-07-04T21:20:03.632Z,57.70
2018-07-04T21:22:36.319Z,57.20
2018-07-04T21:27:35.951Z,57.50
2018-07-04T21:30:08.972Z,57.40
2018-07-04T21:32:41.648Z,57.50
2018-07-04T21:35:14.159Z,57.80
2018-07-04T21:37:46.883Z,57.90
2018-07-04T21:40:19.495Z,58.00
2018-07-04T21:42:52.255Z,58.10
2018-07-04T21:45:24.920Z,58.20
2018-07-04T21:47:57.927Z,58.40
2018-07-04T21:50:30.523Z,58.30
2018-07-04T21:53:03.239Z,58.50
2018-07-04T21:55:36.068Z,58.50
2018-07-04T21:58:08.948Z,58.70
2018-07-04T22:00:41.528Z,58.70
2018-07-04T22:03:14.056Z,58.80
2018-07-04T22:05:46.684Z,58.80
2018-07-04T22:08:19.900Z,59.10
2018-07-04T22:10:52.468Z,58.80
2018-07-04T22:13:25.084Z,59.40
2018-07-04T22:15:57.650Z,59.70
2018-07-04T22:18:30.239Z,59.70
2018-07-04T22:21:02.938Z,59.90
2018-07-04T22:23:35.516Z,59.90
2018-07-04T22:26:08.079Z,59.60
2018-07-04T22:28:40.587Z,59.70
2018-07-04T22:31:13.335Z,59.50
2018-07-04T22:33:45.800Z,59.50
2018-07-04T22:36:18.523Z,59.00
2018-07-04T22:38:51.276Z,59.30
2018-07-04T22:41:23.950Z,58.90
2018-07-04T22:43:56.547Z,59.10
2018-07-04T22:46:29.115Z,58.90
2018-07-04T22:49:01.681Z,58.80
2018-07-04T22:51:34.232Z,58.60
2018-07-04T22:54:06.943Z,58.70
2018-07-04T22:56:39.440Z,58.60
2018-07-04T22:59:12.004Z,58.70
2018-07-04T23:01:44.472Z,58.90
2018-07-04T23:04:17.159Z,58.70
2018-07-04T23:06:49.911Z,59.10
2018-07-04T23:09:22.652Z,58.60
2018-07-04T23:11:55.387Z,58.80
2018-07-04T23:14:27.987Z,58.60
2018-07-04T23:17:00.684Z,58.80
2018-07-04T23:19:33.423Z,58.30
2018-07-04T23:22:06.119Z,58.60
2018-07-04T23:24:38.703Z,61.00
2018-07-04T23:27:11.358Z,63.00
2018-07-04T23:29:44.004Z,62.90
2018-07-04T23:32:16.668Z,63.40
2018-07-04T23:34:49.356Z,63.70
2018-07-04T23:37:21.900Z,64.00
2018-07-04T23:39:54.587Z,64.30
2018-07-04T23:42:27.335Z,64.40
2018-07-04T23:45:00.127Z,65.30
2018-07-04T23:47:32.667Z,65.20
2018-07-04T23:50:05.461Z,65.40
2018-07-04T23:52:38.216Z,65.10
2018-07-04T23:55:10.916Z,64.70
2018-07-04T23:57:43.568Z,64.20
